createdAt,value
2022-08-17T00:01:00.798Z,98.92
2022-08-17T00:02:26.167Z,99.25
2022-08-17T00:03:43.652Z,99.14
2022-08-17T00:04:50.572Z,99.10
2022-08-17T00:06:12.453Z,99.51
2022-08-17T00:07:16.908Z,99.07
2022-08-17T00:08:26.690Z,99.20
2022-08-17T00:09:30.612Z,99.00
2022-08-17T00:10:35.237Z,99.15
2022-08-17T00:12:41.444Z,99.10
2022-08-17T00:13:20.501Z,99.51
2022-08-17T00:14:24.402Z,99.60
2022-08-17T00:15:28.422Z,99.65
2022-08-17T00:16:56.375Z,99.57
2022-08-17T00:18:01.294Z,99.71
2022-08-17T00:19:10.526Z,99.79
2022-08-17T00:20:14.894Z,99.98
2022-08-17T00:21:23.879Z,100.00
2022-08-17T00:22:33.993Z,100.00
2022-08-17T00:23:49.060Z,100.00
2022-08-17T00:24:54.508Z,100.00
2022-08-17T00:25:58.987Z,100.00
2022-08-17T00:27:03.620Z,100.00
2022-08-17T00:28:08.209Z,100.00
2022-08-17T00:29:14.931Z,100.00
2022-08-17T00:30:24.192Z,100.00
2022-08-17T00:31:29.008Z,100.00
2022-08-17T00:33:14.351Z,100.00
2022-08-17T00:34:12.452Z,99.99
2022-08-17T00:35:19.617Z,99.66
2022-08-17T00:36:24.377Z,99.61
2022-08-17T00:37:28.449Z,99.75
2022-08-17T00:38:33.965Z,99.51
2022-08-17T00:39:37.938Z,99.39
2022-08-17T00:40:48.164Z,99.30
2022-08-17T00:41:52.381Z,99.54
2022-08-17T00:42:57.666Z,99.49
2022-08-17T00:44:07.162Z,99.39
2022-08-17T00:45:18.659Z,99.53
2022-08-17T00:46:30.843Z,99.59
2022-08-17T00:47:35.644Z,99.32
2022-08-17T00:48:40.735Z,99.44
2022-08-17T00:49:45.126Z,99.70
2022-08-17T00:51:34.194Z,100.00
2022-08-17T00:52:51.724Z,99.27
2022-08-17T00:54:07.809Z,99.73
2022-08-17T00:55:12.378Z,99.48
2022-08-17T00:56:29.100Z,99.59
2022-08-17T00:57:53.368Z,99.42
2022-08-17T00:59:02.699Z,99.17
2022-08-17T01:00:26.899Z,99.35
2022-08-17T01:01:33.175Z,99.24
2022-08-17T01:02:45.114Z,99.40
2022-08-17T01:03:51.982Z,99.11
2022-08-17T01:04:57.827Z,99.22
2022-08-17T01:06:04.682Z,99.16
2022-08-17T01:07:11.445Z,99.27
2022-08-17T01:08:19.993Z,99.03
2022-08-17T01:09:24.424Z,99.14
2022-08-17T01:10:58.765Z,98.97
2022-08-17T01:12:08.124Z,98.75
2022-08-17T01:13:15.159Z,98.66
2022-08-17T01:14:21.767Z,98.57
2022-08-17T01:15:26.493Z,98.53
2022-08-17T01:16:32.845Z,98.70
2022-08-17T01:17:37.944Z,98.65
2022-08-17T01:18:44.322Z,98.62
2022-08-17T01:19:48.334Z,98.54
2022-08-17T01:20:57.554Z,98.43
2022-08-17T01:22:13.008Z,98.50
2022-08-17T01:23:21.472Z,98.34
2022-08-17T01:24:25.817Z,98.47
2022-08-17T01:25:31.322Z,98.26
2022-08-17T01:26:38.834Z,98.21
2022-08-17T01:27:43.936Z,98.34
2022-08-17T01:28:53.804Z,98.29
2022-08-17T01:30:56.642Z,98.06
2022-08-17T01:31:40.312Z,98.06
2022-08-17T01:32:44.129Z,97.93
2022-08-17T01:33:47.902Z,97.91
2022-08-17T01:34:54.296Z,98.15
2022-08-17T01:36:00.683Z,97.76
2022-08-17T01:37:05.113Z,97.81
2022-08-17T01:38:09.697Z,97.83
2022-08-17T01:39:28.017Z,97.78
2022-08-17T01:40:57.683Z,97.84
2022-08-17T01:42:19.375Z,97.68
2022-08-17T01:43:39.942Z,97.77
2022-08-17T01:44:43.977Z,97.50
2022-08-17T01:46:03.864Z,97.61
2022-08-17T01:47:08.341Z,97.80
2022-08-17T01:48:13.395Z,98.02
2022-08-17T01:49:17.258Z,97.90
2022-08-17T01:50:28.184Z,98.35
2022-08-17T01:51:33.296Z,98.46
2022-08-17T01:52:37.557Z,98.55
2022-08-17T01:53:47.944Z,98.97
2022-08-17T01:54:53.556Z,99.35
2022-08-17T01:56:08.313Z,99.70
2022-08-17T01:57:12.546Z,99.39
2022-08-17T01:58:16.859Z,99.52
2022-08-17T01:59:21.441Z,99.67
2022-08-17T02:00:27.856Z,99.78
2022-08-17T02:01:53.087Z,99.65
2022-08-17T02:02:57.196Z,99.50
2022-08-17T02:04:02.880Z,99.59
2022-08-17T02:05:09.599Z,99.52
2022-08-17T02:06:28.242Z,99.75
2022-08-17T02:07:32.170Z,99.55
2022-08-17T02:09:01.629Z,99.50
2022-08-17T02:10:16.709Z,99.77
2022-08-17T02:11:24.991Z,99.51
2022-08-17T02:12:37.793Z,99.68
2022-08-17T02:13:45.887Z,99.67
2022-08-17T02:14:50.524Z,99.99
2022-08-17T02:15:54.599Z,99.77
2022-08-17T02:16:58.664Z,99.90
2022-08-17T02:18:05.706Z,99.92
2022-08-17T02:19:17.079Z,100.00
2022-08-17T02:20:41.684Z,100.00
2022-08-17T02:21:49.526Z,100.00
2022-08-17T02:22:53.490Z,100.00
2022-08-17T02:23:57.627Z,100.00
2022-08-17T02:25:02.844Z,100.00
2022-08-17T02:26:08.523Z,100.00
2022-08-17T02:27:27.862Z,100.00
2022-08-17T02:28:31.778Z,100.00
2022-08-17T02:29:35.877Z,100.00
2022-08-17T02:30:59.096Z,100.00
2022-08-17T02:32:06.177Z,100.00
2022-08-17T02:33:10.078Z,100.00
2022-08-17T02:34:15.134Z,100.00
2022-08-17T02:35:19.417Z,100.00
2022-08-17T02:36:27.501Z,100.00
2022-08-17T02:37:32.937Z,100.00
2022-08-17T02:38:40.205Z,100.00
2022-08-17T02:39:46.227Z,100.00
2022-08-17T02:40:50.442Z,100.00
2022-08-17T02:42:03.407Z,100.00
2022-08-17T02:43:10.349Z,100.00
2022-08-17T02:44:14.218Z,100.00
2022-08-17T02:45:38.113Z,100.00
2022-08-17T02:46:41.921Z,100.00
2022-08-17T02:47:47.054Z,100.00
2022-08-17T02:48:50.911Z,100.00
2022-08-17T02:49:56.008Z,100.00
2022-08-17T02:51:01.661Z,100.00
2022-08-17T02:52:08.380Z,100.00
2022-08-17T02:53:12.160Z,100.00
2022-08-17T02:54:40.592Z,100.00
2022-08-17T02:55:42.992Z,100.00
2022-08-17T02:56:46.689Z,100.00
2022-08-17T02:57:52.185Z,100.00
2022-08-17T02:58:56.230Z,100.00
2022-08-17T03:00:00.034Z,100.00
2022-08-17T03:01:10.692Z,100.00
2022-08-17T03:02:15.695Z,100.00
2022-08-17T03:03:19.631Z,100.00
2022-08-17T03:04:23.610Z,100.00
2022-08-17T03:05:30.591Z,100.00
2022-08-17T03:06:34.478Z,100.00
2022-08-17T03:07:39.312Z,100.00
2022-08-17T03:08:43.363Z,100.00
2022-08-17T03:09:47.636Z,100.00
2022-08-17T03:10:51.556Z,100.00
2022-08-17T03:11:56.038Z,100.00
2022-08-17T03:13:00.660Z,100.00
2022-08-17T03:14:04.742Z,100.00
2022-08-17T03:15:23.065Z,100.00
2022-08-17T03:16:26.956Z,100.00
2022-08-17T03:17:30.983Z,100.00
2022-08-17T03:18:35.378Z,100.00
2022-08-17T03:19:39.630Z,100.00
2022-08-17T03:20:47.208Z,100.00
2022-08-17T03:21:54.890Z,100.00
2022-08-17T03:23:01.773Z,100.00
2022-08-17T03:24:09.022Z,100.00
2022-08-17T03:25:24.506Z,100.00
2022-08-17T03:26:29.778Z,100.00
2022-08-17T03:27:33.923Z,100.00
2022-08-17T03:28:40.972Z,100.00
2022-08-17T03:29:45.177Z,100.00
2022-08-17T03:30:49.774Z,100.00
2022-08-17T03:31:53.697Z,100.00
2022-08-17T03:33:01.924Z,100.00
2022-08-17T03:34:06.060Z,100.00
2022-08-17T03:35:12.491Z,100.00
2022-08-17T03:36:16.806Z,100.00
2022-08-17T03:37:20.628Z,100.00
2022-08-17T03:38:25.638Z,100.00
2022-08-17T03:39:29.499Z,100.00
2022-08-17T03:40:55.212Z,100.00
2022-08-17T03:42:32.293Z,100.00
2022-08-17T03:43:36.779Z,99.99
2022-08-17T03:44:41.337Z,99.99
2022-08-17T03:46:04.050Z,100.00
2022-08-17T03:47:28.580Z,99.95
2022-08-17T03:48:51.065Z,99.79
2022-08-17T03:50:13.470Z,100.00
2022-08-17T03:51:43.315Z,99.83
2022-08-17T03:53:09.487Z,99.51
2022-08-17T03:54:31.937Z,99.46
2022-08-17T03:55:56.556Z,99.70
2022-08-17T03:57:05.568Z,99.63
2022-08-17T03:58:09.659Z,99.80
2022-08-17T03:59:23.024Z,99.92
2022-08-17T04:00:27.867Z,99.87
2022-08-17T04:01:32.250Z,99.97
2022-08-17T04:02:36.704Z,100.00
2022-08-17T04:03:40.590Z,99.99
2022-08-17T04:04:44.853Z,100.00
2022-08-17T04:05:48.660Z,99.95
2022-08-17T04:06:52.731Z,99.88
2022-08-17T04:07:57.248Z,99.70
2022-08-17T04:09:01.365Z,99.99
2022-08-17T04:10:06.278Z,99.81
2022-08-17T04:11:10.649Z,99.74
2022-08-17T04:12:18.958Z,99.94
2022-08-17T04:13:24.066Z,99.72
2022-08-17T04:14:31.311Z,99.70
2022-08-17T04:15:35.155Z,99.35
2022-08-17T04:16:39.193Z,99.34
2022-08-17T04:17:44.434Z,99.30
2022-08-17T04:18:48.183Z,99.20
2022-08-17T04:19:53.408Z,99.03
2022-08-17T04:20:57.837Z,98.94
2022-08-17T04:22:05.715Z,98.90
2022-08-17T04:23:15.857Z,99.07
2022-08-17T04:24:21.182Z,98.75
2022-08-17T04:25:27.603Z,98.71
2022-08-17T04:26:52.135Z,98.49
2022-08-17T04:27:57.604Z,98.33
2022-08-17T04:29:01.483Z,98.28
2022-08-17T04:30:10.071Z,98.24
2022-08-17T04:31:15.950Z,98.37
2022-08-17T04:32:58.407Z,98.13
2022-08-17T04:33:44.595Z,98.04
2022-08-17T04:34:49.055Z,98.04
2022-08-17T04:35:58.507Z,98.07
2022-08-17T04:37:02.293Z,97.96
2022-08-17T04:38:12.163Z,97.84
2022-08-17T04:39:16.133Z,97.61
2022-08-17T04:40:41.830Z,97.75
2022-08-17T04:42:04.413Z,97.46
2022-08-17T04:43:18.787Z,97.21
2022-08-17T04:44:28.339Z,97.44
2022-08-17T04:45:55.496Z,97.26
2022-08-17T04:47:00.767Z,97.10
2022-08-17T04:48:04.604Z,97.44
2022-08-17T04:49:11.748Z,97.45
2022-08-17T04:50:15.974Z,97.31
2022-08-17T04:51:31.306Z,97.23
2022-08-17T04:52:46.491Z,96.99
2022-08-17T04:53:55.483Z,96.95
2022-08-17T04:55:02.966Z,96.91
2022-08-17T04:56:07.584Z,96.90
2022-08-17T04:57:16.249Z,96.66
2022-08-17T04:58:21.655Z,96.73
2022-08-17T04:59:25.612Z,96.64
2022-08-17T05:00:30.027Z,96.12
2022-08-17T05:01:38.372Z,96.17
2022-08-17T05:02:49.616Z,95.89
2022-08-17T05:03:59.357Z,95.79
2022-08-17T05:05:03.446Z,95.68
2022-08-17T05:06:12.692Z,95.82
2022-08-17T05:07:21.117Z,95.24
2022-08-17T05:08:27.942Z,95.11
2022-08-17T05:09:31.841Z,94.92
2022-08-17T05:10:39.219Z,94.96
2022-08-17T05:12:01.514Z,95.22
2022-08-17T05:13:11.439Z,94.95
2022-08-17T05:14:16.365Z,94.83
2022-08-17T05:15:21.621Z,95.06
2022-08-17T05:16:29.621Z,94.78
2022-08-17T05:17:33.424Z,94.74
2022-08-17T05:18:39.034Z,94.61
2022-08-17T05:19:43.028Z,94.29
2022-08-17T05:20:47.439Z,94.11
2022-08-17T05:21:52.908Z,93.86
2022-08-17T05:23:01.754Z,93.60
2022-08-17T05:24:06.072Z,93.35
2022-08-17T05:25:42.354Z,92.50
2022-08-17T05:26:51.595Z,91.91
2022-08-17T05:27:57.681Z,91.65
2022-08-17T05:29:03.116Z,91.23
2022-08-17T05:30:09.582Z,90.64
2022-08-17T05:31:14.891Z,90.29
2022-08-17T05:32:38.034Z,89.59
2022-08-17T05:33:46.294Z,89.12
2022-08-17T05:34:50.452Z,88.62
2022-08-17T05:35:57.761Z,87.95
2022-08-17T05:37:01.807Z,87.36
2022-08-17T05:38:08.220Z,86.95
2022-08-17T05:39:16.332Z,86.25
2022-08-17T05:40:23.475Z,86.00
2022-08-17T05:41:27.751Z,85.49
2022-08-17T05:42:31.662Z,85.04
2022-08-17T05:43:40.131Z,84.38
2022-08-17T05:44:44.080Z,83.92
2022-08-17T05:46:03.018Z,82.63
2022-08-17T05:47:07.335Z,82.74
2022-08-17T05:48:14.494Z,81.83
2022-08-17T05:49:27.859Z,81.39
2022-08-17T05:50:57.333Z,80.89
2022-08-17T05:52:27.342Z,79.85
2022-08-17T05:54:33.284Z,78.74
2022-08-17T05:56:56.571Z,77.42
2022-08-17T05:58:17.404Z,76.62
2022-08-17T05:59:36.402Z,75.76
2022-08-17T06:01:10.455Z,74.99
2022-08-17T06:02:23.516Z,74.46
2022-08-17T06:04:03.225Z,73.44
2022-08-17T06:05:29.700Z,72.94
2022-08-17T06:07:09.821Z,72.33
2022-08-17T06:08:54.157Z,71.43
2022-08-17T06:10:43.685Z,70.01
2022-08-17T06:12:29.008Z,70.62
2022-08-17T06:14:13.637Z,69.07
2022-08-17T06:15:38.884Z,68.44
2022-08-17T06:16:49.657Z,67.54
2022-08-17T06:18:00.115Z,66.72
2022-08-17T06:19:16.328Z,66.17
2022-08-17T06:20:20.599Z,65.29
2022-08-17T06:21:30.540Z,64.35
2022-08-17T06:22:49.761Z,62.78
2022-08-17T06:24:31.671Z,61.04
2022-08-17T06:25:57.849Z,58.81
2022-08-17T06:27:37.536Z,57.08
2022-08-17T06:29:08.233Z,54.79
2022-08-17T06:30:28.646Z,53.50
2022-08-17T06:31:52.577Z,51.41
2022-08-17T06:33:14.872Z,50.39
2022-08-17T06:34:21.970Z,49.69
2022-08-17T06:35:50.856Z,47.91
2022-08-17T06:36:58.381Z,47.48
2022-08-17T06:43:02.173Z,43.78
2022-08-17T06:44:50.019Z,42.84
2022-08-17T06:45:49.544Z,41.49
2022-08-17T06:47:06.253Z,40.73
2022-08-17T06:48:24.958Z,39.68
2022-08-17T06:50:16.970Z,38.50
2022-08-17T06:51:38.079Z,37.73
2022-08-17T06:53:00.952Z,37.30
2022-08-17T06:54:27.867Z,36.50
2022-08-17T06:55:48.285Z,36.39
2022-08-17T06:57:02.819Z,35.83
2022-08-17T06:58:16.351Z,35.62
2022-08-17T06:59:55.013Z,34.90
2022-08-17T07:00:59.196Z,34.24
2022-08-17T07:02:09.956Z,34.44
2022-08-17T07:03:57.510Z,33.74
2022-08-17T07:05:02.322Z,33.43
2022-08-17T07:06:16.989Z,33.56
2022-08-17T07:07:41.363Z,33.02
2022-08-17T07:09:07.411Z,32.83
2022-08-17T07:10:14.671Z,32.74
2022-08-17T07:11:32.677Z,32.49
2022-08-17T07:12:43.535Z,32.44
2022-08-17T07:14:29.940Z,32.63
2022-08-17T07:15:42.971Z,32.73
2022-08-17T07:16:53.811Z,32.74
2022-08-17T07:18:00.788Z,32.44
2022-08-17T07:19:07.475Z,31.81
2022-08-17T07:20:22.588Z,31.19
2022-08-17T07:21:51.891Z,30.97
2022-08-17T07:23:16.075Z,30.32
2022-08-17T07:24:51.125Z,30.16
2022-08-17T07:26:07.011Z,30.84
2022-08-17T07:27:22.488Z,31.48
2022-08-17T07:28:30.129Z,31.79
2022-08-17T07:29:47.245Z,31.56
2022-08-17T07:30:54.858Z,30.87
2022-08-17T07:31:59.475Z,30.37
2022-08-17T07:33:14.403Z,29.62
2022-08-17T07:34:18.720Z,29.02
2022-08-17T07:35:41.471Z,28.13
2022-08-17T07:37:01.611Z,27.28
2022-08-17T07:38:31.088Z,26.83
2022-08-17T07:39:35.150Z,26.20
2022-08-17T07:41:03.776Z,26.07
2022-08-17T07:42:11.124Z,26.17
2022-08-17T07:43:23.759Z,25.78
2022-08-17T07:44:27.982Z,25.26
2022-08-17T07:45:54.226Z,25.34
2022-08-17T07:47:17.459Z,24.99
2022-08-17T07:48:27.413Z,25.25
2022-08-17T07:49:41.143Z,24.93
2022-08-17T07:50:49.291Z,24.77
2022-08-17T07:52:00.061Z,24.54
2022-08-17T07:53:26.203Z,24.24
2022-08-17T07:54:38.915Z,24.49
2022-08-17T07:55:43.284Z,24.15
2022-08-17T07:56:53.898Z,23.97
2022-08-17T07:58:00.592Z,23.79
2022-08-17T07:59:33.691Z,23.70
2022-08-17T08:00:37.940Z,23.29
2022-08-17T08:01:48.946Z,23.21
2022-08-17T08:03:28.582Z,22.73
2022-08-17T08:05:02.162Z,22.91
2022-08-17T08:06:26.505Z,22.46
2022-08-17T08:07:38.903Z,22.12
2022-08-17T08:08:50.705Z,22.08
2022-08-17T08:10:25.423Z,22.29
2022-08-17T08:11:35.658Z,22.24
2022-08-17T08:12:39.584Z,22.29
2022-08-17T08:13:45.980Z,22.28
2022-08-17T08:14:58.635Z,22.24
2022-08-17T08:16:29.837Z,21.75
2022-08-17T08:17:47.128Z,21.69
2022-08-17T08:18:57.823Z,21.78
2022-08-17T08:20:34.958Z,21.31
2022-08-17T08:21:51.596Z,21.42
2022-08-17T08:23:10.806Z,21.32
2022-08-17T08:24:55.888Z,21.43
2022-08-17T08:26:18.387Z,21.43
2022-08-17T08:27:50.831Z,21.14
2022-08-17T08:29:33.763Z,21.22
2022-08-17T08:30:48.902Z,20.88
2022-08-17T08:32:14.304Z,20.99
2022-08-17T08:33:42.619Z,21.16
2022-08-17T08:35:04.112Z,21.27
2022-08-17T08:36:59.284Z,20.82
2022-08-17T08:38:29.616Z,21.06
2022-08-17T08:40:30.434Z,21.19
2022-08-17T08:42:18.384Z,21.86
2022-08-17T08:43:55.058Z,22.41
2022-08-17T08:45:25.160Z,22.79
2022-08-17T08:47:05.170Z,24.04
2022-08-17T08:48:56.280Z,24.62
2022-08-17T08:50:30.244Z,24.70
2022-08-17T08:51:57.593Z,25.04
2022-08-17T08:53:21.632Z,24.71
2022-08-17T08:54:52.435Z,25.04
2022-08-17T08:56:37.480Z,24.80
2022-08-17T08:58:01.054Z,24.76
2022-08-17T08:59:23.462Z,24.56
2022-08-17T09:00:29.548Z,24.28
2022-08-17T09:02:16.339Z,23.24
2022-08-17T09:04:19.945Z,22.83
2022-08-17T09:05:36.854Z,22.31
2022-08-17T09:07:41.564Z,21.92
2022-08-17T09:09:07.618Z,21.50
2022-08-17T09:10:17.215Z,21.57
2022-08-17T09:12:01.453Z,21.50
2022-08-17T09:13:39.466Z,21.26
2022-08-17T09:15:09.562Z,21.62
2022-08-17T09:16:30.084Z,21.82
2022-08-17T09:17:40.154Z,21.75
2022-08-17T09:19:02.178Z,22.34
2022-08-17T09:20:27.147Z,23.18
2022-08-17T09:21:57.645Z,23.46
2022-08-17T09:23:42.396Z,24.75
2022-08-17T09:25:07.533Z,26.13
2022-08-17T09:26:35.340Z,27.22
2022-08-17T09:27:54.064Z,28.64
2022-08-17T09:29:07.217Z,29.45
2022-08-17T09:30:16.469Z,30.66
2022-08-17T09:31:49.133Z,31.65
2022-08-17T09:33:08.622Z,32.33
2022-08-17T09:34:28.149Z,33.68
2022-08-17T09:35:48.378Z,33.94
2022-08-17T09:37:20.621Z,34.55
2022-08-17T09:38:54.792Z,35.43
2022-08-17T09:40:30.110Z,36.40
2022-08-17T09:41:59.497Z,37.22
2022-08-17T09:43:54.208Z,37.91
2022-08-17T09:45:43.178Z,38.81
2022-08-17T09:47:26.696Z,39.55
2022-08-17T09:48:55.593Z,39.54
2022-08-17T09:51:05.262Z,40.15
2022-08-17T09:52:08.979Z,40.58
2022-08-17T09:53:13.878Z,40.88
2022-08-17T09:54:40.858Z,41.29
2022-08-17T09:56:34.284Z,41.21
2022-08-17T09:58:13.040Z,41.19
2022-08-17T10:00:25.869Z,40.81
2022-08-17T10:02:15.497Z,40.74
2022-08-17T10:04:19.985Z,39.90
2022-08-17T10:05:56.971Z,38.95
2022-08-17T10:07:46.861Z,38.28
2022-08-17T10:09:19.251Z,37.97
2022-08-17T10:11:00.384Z,37.68
2022-08-17T10:12:35.786Z,37.62
2022-08-17T10:14:37.015Z,37.87
2022-08-17T10:15:50.043Z,38.05
2022-08-17T10:17:30.013Z,38.16
2022-08-17T10:18:57.095Z,38.56
2022-08-17T10:20:31.140Z,38.99
2022-08-17T10:22:01.214Z,39.53
2022-08-17T10:23:36.884Z,39.58
2022-08-17T10:25:21.360Z,40.03
2022-08-17T10:26:55.409Z,40.29
2022-08-17T10:28:09.025Z,40.56
2022-08-17T10:29:47.255Z,40.58
2022-08-17T10:31:34.126Z,40.44
2022-08-17T10:32:48.539Z,40.40
2022-08-17T10:34:29.158Z,40.59
2022-08-17T10:35:51.597Z,40.85
2022-08-17T10:37:20.395Z,41.40
2022-08-17T10:38:47.062Z,41.64
2022-08-17T10:40:24.730Z,41.67
2022-08-17T10:41:45.623Z,41.81
2022-08-17T10:43:01.020Z,41.69
2022-08-17T10:44:51.801Z,41.55
2022-08-17T10:46:54.544Z,41.54
2022-08-17T10:48:07.695Z,41.52
2022-08-17T10:49:17.518Z,41.57
2022-08-17T10:51:00.160Z,42.03
2022-08-17T10:52:26.244Z,42.04
2022-08-17T10:53:32.821Z,41.89
2022-08-17T10:54:41.939Z,41.94
2022-08-17T10:56:14.436Z,41.88
2022-08-17T10:57:47.523Z,41.91
2022-08-17T10:59:01.264Z,42.06
2022-08-17T11:00:16.075Z,42.53
2022-08-17T11:01:38.447Z,42.43
2022-08-17T11:02:54.562Z,42.53
2022-08-17T11:04:04.828Z,42.70
2022-08-17T11:05:32.770Z,42.44
2022-08-17T11:06:49.580Z,42.64
2022-08-17T11:08:26.983Z,42.55
2022-08-17T11:10:24.003Z,43.10
2022-08-17T11:11:54.446Z,42.86
2022-08-17T11:13:30.503Z,43.13
2022-08-17T11:14:49.435Z,43.28
2022-08-17T11:16:51.497Z,43.49
2022-08-17T11:18:45.762Z,43.16
2022-08-17T11:20:09.744Z,43.09
2022-08-17T11:21:17.633Z,43.09
2022-08-17T11:22:39.683Z,43.06
2022-08-17T11:23:57.712Z,43.81
2022-08-17T11:25:21.584Z,43.82
2022-08-17T11:26:39.173Z,43.22
2022-08-17T11:27:47.385Z,43.19
2022-08-17T11:28:59.013Z,43.69
2022-08-17T11:30:13.318Z,43.42
2022-08-17T11:31:44.633Z,43.63
2022-08-17T11:32:53.057Z,43.20
2022-08-17T11:34:06.929Z,43.42
2022-08-17T11:35:31.311Z,43.48
2022-08-17T11:37:04.301Z,43.19
2022-08-17T11:38:20.446Z,43.42
2022-08-17T11:39:39.542Z,43.22
2022-08-17T11:41:31.050Z,42.97
2022-08-17T11:43:10.680Z,43.21
2022-08-17T11:44:56.262Z,43.23
2022-08-17T11:46:17.634Z,42.88
2022-08-17T11:48:15.873Z,42.94
2022-08-17T11:50:22.518Z,42.85
2022-08-17T11:52:14.852Z,42.70
2022-08-17T11:53:40.391Z,42.95
2022-08-17T11:54:49.216Z,42.57
2022-08-17T11:55:52.986Z,42.75
2022-08-17T11:57:00.385Z,42.97
2022-08-17T11:58:27.382Z,42.87
2022-08-17T11:59:36.134Z,42.70
2022-08-17T12:00:46.474Z,42.67
2022-08-17T12:01:57.360Z,42.53
2022-08-17T12:03:42.480Z,42.09
2022-08-17T12:05:12.976Z,41.94
2022-08-17T12:06:49.307Z,41.40
2022-08-17T12:08:18.638Z,41.80
2022-08-17T12:09:28.868Z,41.97
2022-08-17T12:10:40.174Z,41.91
2022-08-17T12:12:20.565Z,41.82
2022-08-17T12:13:30.515Z,42.20
2022-08-17T12:15:11.084Z,42.11
2022-08-17T12:16:21.156Z,42.24
2022-08-17T12:17:40.389Z,41.74
2022-08-17T12:19:02.618Z,41.71
2022-08-17T12:20:14.747Z,41.44
2022-08-17T12:21:40.968Z,41.01
2022-08-17T12:23:21.018Z,41.41
2022-08-17T12:24:59.878Z,41.22
2022-08-17T12:26:21.612Z,40.70
2022-08-17T12:27:50.748Z,40.35
2022-08-17T12:29:18.338Z,40.57
2022-08-17T12:30:39.233Z,40.88
2022-08-17T12:31:48.095Z,40.22
2022-08-17T12:32:53.709Z,40.68
2022-08-17T12:34:00.508Z,40.46
2022-08-17T12:35:39.145Z,40.47
2022-08-17T12:36:43.634Z,40.28
2022-08-17T12:37:50.667Z,40.73
2022-08-17T12:39:13.681Z,40.48
2022-08-17T12:40:24.550Z,40.48
2022-08-17T12:41:42.018Z,39.90
2022-08-17T12:43:08.073Z,39.88
2022-08-17T12:44:12.399Z,40.14
2022-08-17T12:45:36.999Z,40.21
2022-08-17T12:47:04.890Z,39.95
2022-08-17T12:48:22.191Z,39.84
2022-08-17T12:49:36.444Z,39.72
2022-08-17T12:50:46.297Z,39.83
2022-08-17T12:52:00.554Z,39.45
2022-08-17T12:53:25.226Z,38.39
2022-08-17T12:54:48.660Z,38.81
2022-08-17T12:55:55.262Z,38.67
2022-08-17T12:57:12.217Z,38.86
2022-08-17T12:58:25.419Z,39.04
2022-08-17T12:59:33.315Z,38.96
2022-08-17T13:00:47.607Z,39.19
2022-08-17T13:01:52.125Z,39.00
2022-08-17T13:03:09.747Z,39.04
2022-08-17T13:04:17.960Z,38.94
2022-08-17T13:05:40.428Z,38.95
2022-08-17T13:06:59.837Z,39.02
2022-08-17T13:08:31.355Z,38.75
2022-08-17T13:09:40.555Z,38.90
2022-08-17T13:10:58.615Z,39.08
2022-08-17T13:12:02.551Z,38.77
2022-08-17T13:13:32.535Z,38.48
2022-08-17T13:14:36.628Z,38.55
2022-08-17T13:15:55.997Z,38.78
2022-08-17T13:17:09.682Z,38.31
2022-08-17T13:18:51.125Z,38.68
2022-08-17T13:19:55.825Z,38.62
2022-08-17T13:21:01.187Z,38.26
2022-08-17T13:22:12.957Z,38.07
2022-08-17T13:23:21.557Z,38.00
2022-08-17T13:24:38.032Z,38.25
2022-08-17T13:25:43.096Z,37.98
2022-08-17T13:27:01.533Z,38.25
2022-08-17T13:28:35.505Z,37.69
2022-08-17T13:29:51.516Z,37.86
2022-08-17T13:31:30.433Z,38.04
2022-08-17T13:32:44.107Z,37.52
2022-08-17T13:33:48.849Z,38.13
2022-08-17T13:35:12.090Z,37.92
2022-08-17T13:36:32.173Z,37.80
2022-08-17T13:37:37.712Z,38.27
2022-08-17T13:38:49.834Z,38.28
2022-08-17T13:40:02.570Z,38.42
2022-08-17T13:41:07.771Z,38.18
2022-08-17T13:42:52.836Z,39.05
2022-08-17T13:43:57.576Z,38.81
2022-08-17T13:45:02.090Z,38.58
2022-08-17T13:46:31.850Z,38.65
2022-08-17T13:47:36.208Z,38.99
2022-08-17T13:48:40.548Z,39.20
2022-08-17T13:49:49.283Z,39.22
2022-08-17T13:50:58.712Z,39.50
2022-08-17T13:52:03.003Z,39.34
2022-08-17T13:53:36.920Z,39.35
2022-08-17T13:54:41.712Z,39.56
2022-08-17T13:55:54.356Z,39.24
2022-08-17T13:57:02.539Z,39.13
2022-08-17T13:58:07.521Z,38.87
2022-08-17T13:59:54.929Z,38.91
2022-08-17T14:00:51.954Z,38.94
2022-08-17T14:01:57.191Z,38.80
2022-08-17T14:03:04.924Z,38.71
2022-08-17T14:04:23.673Z,38.14
2022-08-17T14:05:31.048Z,38.57
2022-08-17T14:07:23.427Z,38.02
2022-08-17T14:08:30.977Z,38.19
2022-08-17T14:09:50.391Z,37.99
2022-08-17T14:10:58.843Z,38.47
2022-08-17T14:12:07.059Z,38.19
2022-08-17T14:13:13.514Z,38.16
2022-08-17T14:14:18.861Z,38.31
2022-08-17T14:15:54.779Z,38.11
2022-08-17T14:16:55.413Z,38.18
2022-08-17T14:17:59.544Z,38.47
2022-08-17T14:19:04.389Z,38.58
2022-08-17T14:20:13.703Z,38.49
2022-08-17T14:21:18.065Z,38.72
2022-08-17T14:22:29.728Z,39.21
2022-08-17T14:23:35.531Z,39.17
2022-08-17T14:24:45.041Z,39.17
2022-08-17T14:25:49.387Z,39.48
2022-08-17T14:26:54.298Z,39.30
2022-08-17T14:27:58.583Z,39.55
2022-08-17T14:29:02.861Z,39.91
2022-08-17T14:30:11.824Z,39.62
2022-08-17T14:31:16.545Z,39.52
2022-08-17T14:32:25.993Z,39.47
2022-08-17T14:33:30.072Z,39.50
2022-08-17T14:34:34.080Z,39.87
2022-08-17T14:35:38.122Z,39.60
2022-08-17T14:36:48.152Z,39.80
2022-08-17T14:37:53.540Z,39.78
2022-08-17T14:38:57.858Z,39.87
2022-08-17T14:40:08.472Z,39.57
2022-08-17T14:41:12.942Z,39.61
2022-08-17T14:42:18.672Z,39.77
2022-08-17T14:43:22.587Z,39.47
2022-08-17T14:44:27.716Z,39.71
2022-08-17T14:45:33.489Z,39.62
2022-08-17T14:46:37.762Z,39.60
2022-08-17T14:47:42.472Z,39.63
2022-08-17T14:48:47.274Z,39.69
2022-08-17T14:49:51.449Z,39.86
2022-08-17T14:50:56.922Z,39.57
2022-08-17T14:52:02.157Z,39.59
2022-08-17T14:53:09.416Z,39.32
2022-08-17T14:54:33.013Z,39.40
2022-08-17T14:55:40.719Z,39.15
2022-08-17T14:56:46.963Z,39.14
2022-08-17T14:57:59.113Z,39.65
2022-08-17T14:59:03.216Z,39.67
2022-08-17T15:00:11.336Z,39.49
2022-08-17T15:01:16.876Z,39.54
2022-08-17T15:02:22.501Z,39.54
2022-08-17T15:03:34.778Z,39.36
2022-08-17T15:04:44.883Z,39.27
2022-08-17T15:05:50.017Z,39.47
2022-08-17T15:06:54.286Z,39.46
2022-08-17T15:08:00.031Z,39.75
2022-08-17T15:09:04.562Z,39.42
2022-08-17T15:10:11.070Z,39.51
2022-08-17T15:11:16.133Z,39.76
2022-08-17T15:12:26.432Z,40.09
2022-08-17T15:13:37.161Z,40.03
2022-08-17T15:14:57.283Z,39.89
2022-08-17T15:16:01.686Z,39.95
2022-08-17T15:17:05.838Z,40.13
2022-08-17T15:18:09.638Z,40.48
2022-08-17T15:19:13.423Z,40.43
2022-08-17T15:20:28.213Z,40.84
2022-08-17T15:21:35.010Z,40.76
2022-08-17T15:22:44.032Z,40.97
2022-08-17T15:23:47.984Z,40.94
2022-08-17T15:24:51.878Z,40.84
2022-08-17T15:25:55.932Z,41.01
2022-08-17T15:26:59.729Z,41.06
2022-08-17T15:28:04.366Z,41.08
2022-08-17T15:29:10.617Z,41.16
2022-08-17T15:30:16.266Z,41.26
2022-08-17T15:31:20.387Z,41.42
2022-08-17T15:32:39.858Z,41.27
2022-08-17T15:33:44.719Z,41.18
2022-08-17T15:34:49.658Z,40.86
2022-08-17T15:35:54.354Z,41.23
2022-08-17T15:36:58.144Z,41.10
2022-08-17T15:38:11.214Z,40.58
2022-08-17T15:39:19.257Z,40.71
2022-08-17T15:40:23.728Z,40.71
2022-08-17T15:41:28.604Z,40.68
2022-08-17T15:42:33.151Z,40.69
2022-08-17T15:43:37.763Z,40.87
2022-08-17T15:44:41.638Z,40.72
2022-08-17T15:46:00.003Z,40.50
2022-08-17T15:47:04.661Z,40.41
2022-08-17T15:48:09.498Z,40.20
2022-08-17T15:49:14.047Z,40.19
2022-08-17T15:50:18.050Z,40.40
2022-08-17T15:51:33.047Z,40.56
2022-08-17T15:52:40.625Z,40.29
2022-08-17T15:53:49.586Z,40.63
2022-08-17T15:55:01.679Z,40.49
2022-08-17T15:56:06.686Z,40.71
2022-08-17T15:57:10.643Z,40.34
2022-08-17T15:58:15.004Z,41.25
2022-08-17T15:59:23.447Z,41.90
2022-08-17T16:00:30.195Z,43.27
2022-08-17T16:02:21.523Z,43.53
2022-08-17T16:03:44.959Z,43.35
2022-08-17T16:04:29.884Z,44.62
2022-08-17T16:05:35.902Z,44.60
2022-08-17T16:06:41.495Z,45.32
2022-08-17T16:07:45.279Z,45.16
2022-08-17T16:08:50.664Z,46.27
2022-08-17T16:09:59.704Z,46.56
2022-08-17T16:11:04.545Z,46.59
2022-08-17T16:12:21.462Z,47.80
2022-08-17T16:13:28.021Z,48.50
2022-08-17T16:14:33.692Z,48.05
2022-08-17T16:15:39.087Z,49.27
2022-08-17T16:16:43.084Z,49.51